Time;durP1;ratioP1;P1;durP2;ratioP2;P2;SDS_P1;SDS_P2;PMS_P1;PMS_P2;Temp;Humidity;BMP_temperature;BMP_pressure;BME280_temperature;BME280_humidity;BME280_pressure;Samples;Min_cycle;Max_cycle;Signal;HPM_P1;HPM_P2
2021/05/18 00:01:53;;;;;;;1.73;1.10;;;;;;;8.36;93.50;95054.75;4793624;29;20107;-91
2021/05/18 00:04:19;;;;;;;2.83;1.00;;;;;;;8.39;93.75;95051.84;4793361;29;20034;-91
2021/05/18 00:06:47;;;;;;;1.88;0.98;;;;;;;8.36;93.43;95054.75;4810314;29;20041;-92
2021/05/18 00:12:19;;;;;;;3.40;1.10;;;;;;;8.58;93.42;95086.78;4810077;29;20120;-92
2021/05/18 00:14:45;;;;;;;2.40;0.90;;;;;;;8.20;93.18;95017.41;4793631;29;20042;-92
2021/05/18 00:17:10;;;;;;;2.58;1.27;;;;;;;8.21;93.25;95019.66;4793329;29;20026;-92
2021/05/18 00:19:36;;;;;;;3.75;2.20;;;;;;;8.14;92.91;95009.94;4793493;29;20121;-92
2021/05/18 00:22:01;;;;;;;3.90;3.60;;;;;;;8.54;93.98;95059.91;4793697;29;20063;-92
2021/05/18 00:24:27;;;;;;;4.00;3.60;;;;;;;8.15;93.33;94994.50;4793268;29;20033;-92
2021/05/18 00:26:54;;;;;;;3.20;2.90;;;;;;;8.47;93.22;95051.44;4795408;29;20047;-93
2021/05/18 00:29:20;;;;;;;3.65;3.10;;;;;;;8.17;92.51;95013.69;4796711;29;20031;-92
2021/05/18 00:31:46;;;;;;;4.97;2.58;;;;;;;8.14;93.25;95006.50;4796573;29;20041;-91
2021/05/18 00:34:11;;;;;;;2.45;2.20;;;;;;;8.28;92.54;95029.31;4796690;29;20030;-91
2021/05/18 00:36:37;;;;;;;2.75;2.05;;;;;;;8.19;92.49;95018.63;4796438;29;20031;-92
2021/05/18 00:39:04;;;;;;;3.33;2.00;;;;;;;8.61;92.58;95072.28;4796807;29;20432;-92
2021/05/18 00:41:30;;;;;;;2.88;1.85;;;;;;;8.10;92.90;94995.91;4796622;29;20114;-92
2021/05/18 00:43:55;;;;;;;1.90;1.60;;;;;;;8.17;93.23;95018.34;4796750;29;20129;-92
2021/05/18 00:46:23;;;;;;;2.45;1.63;;;;;;;8.07;92.52;94998.81;4796147;29;20059;-91
2021/05/18 00:48:58;;;;;;;2.13;1.60;;;;;;;8.11;93.01;95010.91;4796360;29;20062;-90
2021/05/18 00:51:25;;;;;;;2.15;1.60;;;;;;;8.59;93.82;95070.03;4796420;29;20059;-92
2021/05/18 00:53:52;;;;;;;3.47;1.77;;;;;;;8.00;92.50;94996.53;4796321;29;20087;-91
2021/05/18 00:59:05;;;;;;;2.63;1.30;;;;;;;8.27;92.69;95025.13;4812680;29;20031;-93
2021/05/18 01:01:32;;;;;;;2.65;0.90;;;;;;;8.41;93.30;95043.25;4796123;29;20039;-92
2021/05/18 01:03:59;;;;;;;1.67;0.90;;;;;;;8.49;91.45;95070.66;4796055;29;20313;-92
2021/05/18 01:06:29;;;;;;;1.67;0.80;;;;;;;8.17;90.88;95035.31;4798192;29;20030;-91
2021/05/18 01:08:58;;;;;;;1.08;1.00;;;;;;;7.76;92.51;94972.34;4801702;29;20037;-92
2021/05/18 01:11:31;;;;;;;0.88;0.80;;;;;;;8.34;92.57;95052.50;4801020;29;20424;-92
2021/05/18 01:14:00;;;;;;;2.75;1.20;;;;;;;8.36;93.24;95052.81;4802261;29;20023;-92
2021/05/18 01:16:28;;;;;;;2.67;0.98;;;;;;;8.43;92.57;95072.56;4802265;29;20035;-91
2021/05/18 01:18:57;;;;;;;2.95;1.10;;;;;;;8.45;94.24;95076.28;4800078;29;20027;-92
2021/05/18 01:21:25;;;;;;;1.58;1.15;;;;;;;8.43;93.28;95069.84;4807753;29;20074;-93
2021/05/18 01:23:56;;;;;;;0.90;0.90;;;;;;;8.48;93.08;95061.81;4800269;29;20076;-90
2021/05/18 01:26:25;;;;;;;1.27;0.90;;;;;;;8.16;92.00;95022.28;4808246;29;20035;-93
2021/05/18 01:28:52;;;;;;;1.75;0.80;;;;;;;8.46;91.84;95075.03;4798714;29;20065;-91
2021/05/18 01:31:23;;;;;;;1.80;0.88;;;;;;;8.45;92.77;95078.22;4798355;29;20039;-91
2021/05/18 01:33:52;;;;;;;3.13;0.90;;;;;;;8.38;92.76;95063.91;4798951;29;20092;-92
2021/05/18 01:36:22;;;;;;;1.02;0.60;;;;;;;8.46;92.47;95075.03;4799773;29;20043;-93
2021/05/18 01:44:12;;;;;;;1.60;0.70;;;;;;;8.34;93.21;95049.78;4829093;29;20060;-93
2021/05/18 01:46:38;;;;;;;0.88;0.88;;;;;;;8.39;92.74;95067.34;4813739;29;20065;-92
2021/05/18 01:49:10;;;;;;;1.10;1.00;;;;;;;8.14;92.93;95020.03;4813466;29;20041;-91
2021/05/18 01:51:39;;;;;;;1.80;1.40;;;;;;;8.05;92.18;95010.09;4813320;29;20036;-92
2021/05/18 01:54:09;;;;;;;1.90;1.77;;;;;;;8.07;92.84;95004.97;4813392;29;20404;-91
2021/05/18 01:56:54;;;;;;;4.43;2.33;;;;;;;8.49;93.80;95060.59;4813576;29;20038;-91
2021/05/18 01:59:24;;;;;;;2.33;2.13;;;;;;;8.43;92.51;95050.91;4814079;29;20034;-90
2021/05/18 02:01:56;;;;;;;3.08;2.72;;;;;;;8.43;92.88;95065.19;4813337;29;20412;-90
2021/05/18 02:04:23;;;;;;;2.40;2.20;;;;;;;8.44;93.70;95061.25;4813280;29;20034;-91
2021/05/18 02:06:50;;;;;;;3.33;2.08;;;;;;;8.08;92.96;95017.25;4813131;29;20449;-91
2021/05/18 02:09:17;;;;;;;1.85;1.60;;;;;;;7.95;93.62;94983.66;4813263;29;20026;-91
2021/05/18 02:11:42;;;;;;;1.90;1.67;;;;;;;8.16;92.40;95022.28;4813109;29;20034;-91
2021/05/18 02:14:15;;;;;;;2.60;1.70;;;;;;;7.99;93.47;95025.53;4812912;29;20026;-91
2021/05/18 02:16:42;;;;;;;1.90;1.17;;;;;;;8.04;92.52;95015.97;4812961;29;20041;-91
2021/05/18 02:19:21;;;;;;;1.00;0.90;;;;;;;8.14;91.91;95034.28;4812763;29;20037;-91
2021/05/18 02:26:59;;;;;;;1.23;1.10;;;;;;;8.18;91.50;95055.75;4830167;29;20122;-91
2021/05/18 02:29:24;;;;;;;1.23;0.80;;;;;;;8.24;92.26;95074.75;4812672;29;20138;-91
2021/05/18 02:31:49;;;;;;;1.08;0.95;;;;;;;7.70;91.43;95012.81;4812753;29;20034;-90
2021/05/18 02:34:15;;;;;;;1.35;1.25;;;;;;;8.11;93.09;95053.44;4813072;29;20103;-90
2021/05/18 02:36:41;;;;;;;1.90;1.40;;;;;;;8.04;92.82;95035.66;4812747;29;20030;-91
2021/05/18 02:39:07;;;;;;;3.00;2.40;;;;;;;7.91;92.65;95046.03;4812610;29;20033;-91
2021/05/18 02:41:34;;;;;;;2.53;2.30;;;;;;;8.43;93.69;95107.72;4812626;29;20062;-91
2021/05/18 02:44:04;;;;;;;4.13;2.80;;;;;;;8.10;93.00;95060.81;4812345;29;20049;-91
2021/05/18 02:51:55;;;;;;;2.92;2.45;;;;;;;8.20;93.09;95066.81;4778472;29;20037;-91
2021/05/18 02:54:25;;;;;;;4.05;2.50;;;;;;;8.22;93.47;95072.53;4812503;29;20026;-91
2021/05/18 02:57:04;;;;;;;3.88;2.35;;;;;;;8.05;94.00;95034.44;4812941;29;20026;-91
2021/05/18 02:59:29;;;;;;;2.80;2.22;;;;;;;8.11;93.03;95056.16;4812150;29;20043;-90
2021/05/18 03:01:58;;;;;;;2.70;2.10;;;;;;;8.49;93.48;95108.53;4812355;29;20042;-91
2021/05/18 03:04:26;;;;;;;4.50;2.20;;;;;;;8.54;93.97;95111.31;4812129;29;20030;-91
2021/05/18 03:06:52;;;;;;;2.45;1.63;;;;;;;8.23;92.23;95065.16;4812399;29;20033;-90
2021/05/18 03:09:19;;;;;;;2.28;1.80;;;;;;;8.51;92.47;95125.03;4812764;29;20034;-91
2021/05/18 03:11:47;;;;;;;2.78;1.70;;;;;;;7.95;93.28;95037.75;4812124;29;20038;-92
2021/05/18 03:14:15;;;;;;;4.18;1.30;;;;;;;8.20;93.46;95080.34;4811950;29;20034;-92
2021/05/18 03:16:42;;;;;;;1.80;1.00;;;;;;;7.95;93.25;95046.59;4812238;29;20423;-91
2021/05/18 03:19:10;;;;;;;1.75;0.90;;;;;;;8.55;94.38;95133.72;4812007;29;20041;-91
2021/05/18 03:21:37;;;;;;;1.75;0.93;;;;;;;8.06;93.03;95054.13;4812001;29;20154;-92
2021/05/18 03:24:04;;;;;;;1.70;1.10;;;;;;;7.87;93.39;95048.19;4812218;29;20117;-92
2021/05/18 03:26:30;;;;;;;1.95;1.15;;;;;;;8.20;93.05;95085.00;4798727;29;20042;-91
2021/05/18 03:29:10;;;;;;;2.80;1.08;;;;;;;8.08;92.46;95084.88;4793998;29;20041;-91
2021/05/18 03:34:28;;;;;;;3.45;1.35;;;;;;;8.18;94.39;95080.09;4810574;29;20090;-91
2021/05/18 03:36:56;;;;;;;2.58;1.80;;;;;;;8.04;92.55;95054.59;4823668;29;20031;-92
2021/05/18 03:39:22;;;;;;;2.95;1.83;;;;;;;8.50;93.46;95121.59;4812042;29;20034;-91
2021/05/18 04:03:38;;;;;;;2.78;1.70;;;;;;;8.22;92.98;95106.94;4813330;29;20379;-91
2021/05/18 04:16:54;;;;;;;2.67;1.40;;;;;;;8.13;92.86;95095.00;4813826;29;20038;-92
2021/05/18 04:19:24;;;;;;;1.73;1.50;;;;;;;8.14;91.02;95101.16;4796945;29;20041;-92
2021/05/18 04:59:50;;;;;;;4.32;3.45;;;;;;;8.65;92.78;95192.66;4820517;29;20092;-90
2021/05/18 05:08:08;;;;;;;3.90;3.50;;;;;;;8.32;93.60;95129.94;4824189;29;20087;-90
2021/05/18 05:15:31;;;;;;;4.93;3.97;;;;;;;8.40;93.27;95141.88;4814163;29;20026;-90
2021/05/18 05:17:57;;;;;;;5.13;4.60;;;;;;;8.36;93.92;95125.09;4801206;29;20031;-90
2021/05/18 05:20:23;;;;;;;4.38;3.58;;;;;;;8.39;93.58;95141.13;4813761;29;20113;-91
2021/05/18 05:22:48;;;;;;;3.95;3.58;;;;;;;8.50;92.93;95142.50;4796312;29;20037;-91
2021/05/18 05:25:14;;;;;;;4.72;3.80;;;;;;;8.40;93.94;95137.22;4810436;29;20030;-90
2021/05/18 05:27:40;;;;;;;4.70;3.47;;;;;;;8.68;94.24;95171.25;4812586;29;20117;-89
2021/05/18 05:30:06;;;;;;;3.40;3.10;;;;;;;8.38;92.67;95122.69;4803472;29;20058;-92
2021/05/18 05:32:32;;;;;;;4.03;3.33;;;;;;;8.58;93.25;95162.56;4811549;29;20042;-89
2021/05/18 05:34:57;;;;;;;4.32;3.22;;;;;;;8.74;93.82;95175.56;4801996;29;20030;-89
2021/05/18 05:37:23;;;;;;;5.32;3.28;;;;;;;8.72;92.80;95179.94;4813649;29;20072;-89
2021/05/18 05:39:48;;;;;;;5.57;3.03;;;;;;;8.77;92.66;95185.41;4813456;29;20038;-90
2021/05/18 05:42:16;;;;;;;4.88;3.00;;;;;;;9.16;93.61;95220.34;4813476;29;20162;-89
2021/05/18 05:44:41;;;;;;;6.25;3.28;;;;;;;9.04;92.70;95200.50;4813283;29;20022;-87
2021/05/18 05:47:07;;;;;;;8.70;4.30;;;;;;;8.71;92.66;95156.78;4805995;29;20038;-89
2021/05/18 05:49:33;;;;;;;6.85;4.10;;;;;;;9.07;93.35;95191.44;4812743;29;20300;-89
2021/05/18 05:51:59;;;;;;;7.03;3.50;;;;;;;9.08;92.82;95189.47;4795269;29;20038;-89
2021/05/18 05:54:24;;;;;;;6.90;3.85;;;;;;;8.97;93.83;95159.56;4808725;29;20355;-88
2021/05/18 05:56:50;;;;;;;7.05;4.07;;;;;;;9.25;91.06;95201.25;4810926;29;20034;-89
2021/05/18 05:59:18;;;;;;;7.20;4.00;;;;;;;9.09;92.25;95172.00;4798294;29;20038;-89
2021/05/18 06:01:44;;;;;;;7.70;4.47;;;;;;;9.41;92.87;95218.91;4794891;29;20026;-89
2021/05/18 06:04:10;;;;;;;9.60;4.18;;;;;;;9.35;92.25;95188.28;4794987;29;20033;-92
2021/05/18 06:06:35;;;;;;;7.47;3.42;;;;;;;9.24;91.46;95169.97;4798346;29;20065;-90
2021/05/18 06:09:01;;;;;;;6.13;3.67;;;;;;;9.35;92.09;95183.63;4802342;29;20122;-89
2021/05/18 06:12:05;;;;;;;6.85;3.90;;;;;;;9.65;92.07;95230.25;4812905;29;20446;-87
2021/05/18 06:47:35;;;;;;;8.20;5.10;;;;;;;9.42;89.68;95229.25;4816755;29;20032;-89
2021/05/18 06:52:45;;;;;;;4.13;2.90;;;;;;;9.63;86.55;95251.66;4816243;29;20072;-88
2021/05/18 06:55:14;;;;;;;7.38;4.68;;;;;;;9.16;88.78;95221.13;4812238;29;20286;-88
2021/05/18 06:57:43;;;;;;;7.13;4.35;;;;;;;9.25;90.16;95220.22;4832717;29;20132;-88
2021/05/18 07:00:11;;;;;;;6.07;4.28;;;;;;;9.67;89.66;95254.91;4814356;29;20022;-87
2021/05/18 07:02:38;;;;;;;3.85;3.50;;;;;;;9.72;85.74;95269.75;4837464;29;20424;-88
2021/05/18 07:05:18;;;;;;;4.07;3.67;;;;;;;9.30;84.43;95210.66;4816054;29;20038;-88
2021/05/18 07:07:45;;;;;;;6.65;4.60;;;;;;;9.54;88.13;95237.53;4811645;29;20043;-88
2021/05/18 07:10:11;;;;;;;4.40;4.00;;;;;;;9.47;85.29;95246.06;4811919;29;20030;-87
2021/05/18 07:12:38;;;;;;;6.07;5.00;;;;;;;9.80;87.34;95273.53;4828189;29;20031;-88
2021/05/18 07:15:05;;;;;;;7.00;4.95;;;;;;;9.68;85.98;95250.22;4811048;29;20030;-87
2021/05/18 07:17:31;;;;;;;5.18;4.43;;;;;;;9.67;84.99;95254.16;4793823;29;20031;-86
2021/05/18 07:19:56;;;;;;;6.30;4.65;;;;;;;9.63;84.86;95248.22;4798219;29;20072;-87
2021/05/18 07:22:22;;;;;;;7.18;5.63;;;;;;;9.77;85.80;95243.91;4810671;29;20062;-87
2021/05/18 07:24:48;;;;;;;4.20;3.80;;;;;;;-145.61;100.00;68426.72;4809251;29;20039;-87
2021/05/18 07:27:13;;;;;;;6.00;5.40;;;;;;;9.44;85.53;95199.72;4811292;29;20122;-87
2021/05/18 07:29:39;;;;;;;5.68;4.28;;;;;;;-145.61;100.00;68426.72;4817425;29;20029;-87
2021/05/18 07:32:05;;;;;;;6.25;4.07;;;;;;;-145.61;100.00;68426.72;4842977;29;20108;-87
2021/05/18 07:34:31;;;;;;;4.80;4.40;;;;;;;-145.61;100.00;68426.72;4829698;29;20113;-87
2021/05/18 07:36:56;;;;;;;5.30;4.80;;;;;;;-145.61;100.00;68426.72;4826724;29;20042;-87
2021/05/18 07:39:22;;;;;;;5.38;4.88;;;;;;;-145.61;100.00;68426.72;4818939;29;20034;-87
2021/05/18 07:41:49;;;;;;;6.18;4.90;;;;;;;-145.61;100.00;68426.72;4816340;29;20037;-87
2021/05/18 07:44:15;;;;;;;8.63;5.38;;;;;;;-145.61;100.00;68426.72;4841419;29;20027;-87
2021/05/18 07:46:42;;;;;;;8.48;5.43;;;;;;;-145.61;100.00;68426.72;4821155;29;20065;-88
2021/05/18 10:34:27;;;;;;;5.35;3.25;;;;;;;-145.61;100.00;68426.72;4824752;29;20324;-88
2021/05/18 10:36:53;;;;;;;2.35;1.92;;;;;;;-145.61;100.00;68426.72;4794562;29;20042;-88
2021/05/18 10:39:20;;;;;;;3.40;2.30;;;;;;;-145.61;100.00;68426.72;4799059;29;20041;-88
2021/05/18 10:41:46;;;;;;;3.97;2.00;;;;;;;-145.61;100.00;68426.72;4810556;29;20501;-87
2021/05/18 10:44:12;;;;;;;2.53;2.20;;;;;;;-145.61;100.00;68426.72;4812371;29;20030;-87
2021/05/18 10:46:55;;;;;;;6.20;2.90;;;;;;;-145.61;100.00;68426.72;4808807;29;20062;-87
2021/05/18 10:49:35;;;;;;;2.40;2.20;;;;;;;-145.61;100.00;68426.72;4805769;29;20421;-87
2021/05/18 10:52:10;;;;;;;3.73;2.10;;;;;;;-145.61;100.00;68426.72;4794096;29;20033;-87
2021/05/18 10:54:40;;;;;;;2.53;1.63;;;;;;;-145.61;100.00;68426.72;4795862;29;20042;-87
2021/05/18 10:57:17;;;;;;;3.45;1.73;;;;;;;-145.61;100.00;68426.72;4797377;29;20399;-86
2021/05/18 10:59:56;;;;;;;2.10;1.77;;;;;;;-145.61;100.00;68426.72;4794049;29;20070;-87
2021/05/18 11:02:32;;;;;;;1.88;1.77;;;;;;;-145.61;100.00;68426.72;4794048;29;20031;-88
2021/05/18 11:05:12;;;;;;;3.00;2.05;;;;;;;-145.61;100.00;68426.72;4794381;29;20027;-87
2021/05/18 11:07:46;;;;;;;3.65;1.33;;;;;;;-145.61;100.00;68426.72;4804029;29;20436;-87
2021/05/18 11:10:19;;;;;;;4.93;1.70;;;;;;;-145.61;100.00;68426.72;4798696;29;20488;-87
2021/05/18 11:12:47;;;;;;;4.10;2.03;;;;;;;-145.61;100.00;68426.72;4816378;29;20304;-87
2021/05/18 11:15:21;;;;;;;3.38;1.70;;;;;;;-145.61;100.00;68426.72;4842224;29;20125;-86
2021/05/18 11:17:51;;;;;;;2.65;1.90;;;;;;;-145.61;100.00;68426.72;4802366;29;20114;-87
2021/05/18 11:23:21;;;;;;;3.50;1.53;;;;;;;-145.61;100.00;68426.72;4842355;29;20087;-87
2021/05/18 11:25:56;;;;;;;2.75;1.63;;;;;;;-145.61;100.00;68426.72;4811724;29;20499;-87
2021/05/18 11:28:32;;;;;;;4.15;1.75;;;;;;;-145.61;100.00;68426.72;4833539;29;20044;-87
2021/05/18 11:31:08;;;;;;;3.38;1.70;;;;;;;-145.61;100.00;68426.72;4832350;29;20033;-86
2021/05/18 11:33:36;;;;;;;2.47;1.60;;;;;;;-145.61;100.00;68426.72;4821766;29;20033;-87
2021/05/18 11:36:24;;;;;;;4.38;1.98;;;;;;;-145.61;100.00;68426.72;4823276;29;20029;-87
2021/05/18 11:38:56;;;;;;;4.03;1.50;;;;;;;-145.61;100.00;68426.72;4797945;29;20043;-87
2021/05/18 11:41:25;;;;;;;4.90;1.70;;;;;;;-145.61;100.00;68426.72;4811465;29;20339;-87
2021/05/18 11:43:57;;;;;;;2.50;1.70;;;;;;;-145.61;100.00;68426.72;4798821;29;20038;-87
2021/05/18 11:46:24;;;;;;;2.10;1.60;;;;;;;-145.61;100.00;68426.72;4807634;29;20073;-88
2021/05/18 11:49:00;;;;;;;2.03;1.77;;;;;;;-145.61;100.00;68426.72;4825908;29;20034;-87
2021/05/18 11:51:50;;;;;;;2.58;1.80;;;;;;;-145.61;100.00;68426.72;4813340;29;20034;-87
2021/05/18 11:54:19;;;;;;;2.22;1.67;;;;;;;-145.61;100.00;68426.72;4808175;29;20065;-87
2021/05/18 11:56:46;;;;;;;2.13;1.60;;;;;;;-145.61;100.00;68426.72;4810699;29;20064;-87
2021/05/18 11:59:20;;;;;;;2.88;1.80;;;;;;;-145.61;100.00;68426.72;4823318;29;20039;-88
2021/05/18 12:01:53;;;;;;;3.05;1.60;;;;;;;-145.61;100.00;68426.72;4807652;29;20030;-86
2021/05/18 12:04:21;;;;;;;3.53;1.90;;;;;;;-145.61;100.00;68426.72;4817577;29;20031;-88
2021/05/18 12:06:57;;;;;;;2.90;1.77;;;;;;;-145.61;100.00;68426.72;4809203;29;20420;-90
2021/05/18 12:09:24;;;;;;;3.47;1.70;;;;;;;-145.61;100.00;68426.72;4815577;29;20320;-90
2021/05/18 12:11:58;;;;;;;1.55;1.20;;;;;;;-145.61;100.00;68426.72;4812509;29;20035;-87
2021/05/18 12:14:24;;;;;;;1.17;1.00;;;;;;;-145.61;100.00;68426.72;4806901;29;20035;-87
2021/05/18 12:16:51;;;;;;;1.73;1.10;;;;;;;-145.61;100.00;68426.72;4820011;29;20523;-87
2021/05/18 12:19:18;;;;;;;1.52;1.10;;;;;;;-145.61;100.00;68426.72;4817745;29;20030;-86
2021/05/18 12:21:46;;;;;;;3.90;1.20;;;;;;;-145.61;100.00;68426.72;4824063;29;20118;-87
2021/05/18 12:24:16;;;;;;;1.70;1.25;;;;;;;-145.61;100.00;68426.72;4815916;29;20030;-86
2021/05/18 12:27:00;;;;;;;2.25;1.40;;;;;;;-145.61;100.00;68426.72;4833616;29;20100;-87
2021/05/18 12:29:49;;;;;;;1.77;1.20;;;;;;;-145.61;100.00;68426.72;4816185;29;20066;-87
2021/05/18 12:32:19;;;;;;;1.67;1.42;;;;;;;-145.61;100.00;68426.72;4824539;29;20114;-87
2021/05/18 12:34:46;;;;;;;2.60;1.17;;;;;;;-145.61;100.00;68426.72;4826590;29;20109;-87
2021/05/18 12:37:13;;;;;;;1.73;1.30;;;;;;;-145.61;100.00;68426.72;4824450;29;20038;-86
2021/05/18 12:39:43;;;;;;;2.55;1.38;;;;;;;-145.61;100.00;68426.72;4810873;29;20137;-87
2021/05/18 12:42:15;;;;;;;1.17;1.08;;;;;;;-145.61;100.00;68426.72;4824266;29;20022;-86
2021/05/18 12:44:54;;;;;;;1.02;0.90;;;;;;;-145.61;100.00;68426.72;4795966;29;20069;-87
2021/05/18 12:47:57;;;;;;;0.93;0.90;;;;;;;-145.61;100.00;68426.72;4803482;29;20383;-87
2021/05/18 12:50:33;;;;;;;0.80;0.65;;;;;;;-145.61;100.00;68426.72;4789707;29;20050;-86
2021/05/18 12:52:58;;;;;;;3.30;1.00;;;;;;;-145.61;100.00;68426.72;4819526;29;20045;-87
2021/05/18 12:55:26;;;;;;;0.90;0.80;;;;;;;-145.61;100.00;68426.72;4806735;29;20031;-87
2021/05/18 12:57:56;;;;;;;2.03;0.80;;;;;;;-145.61;100.00;68426.72;4811829;29;20030;-87
2021/05/18 13:00:35;;;;;;;1.10;0.77;;;;;;;-145.61;100.00;68426.72;4815922;29;20491;-87
2021/05/18 13:03:27;;;;;;;0.90;0.88;;;;;;;-145.61;100.00;68426.72;4813608;29;20088;-87
2021/05/18 13:05:55;;;;;;;2.50;0.70;;;;;;;9.44;85.53;95199.72;4799083;29;20123;-86
2021/05/18 13:08:29;;;;;;;1.00;0.65;;;;;;;9.44;85.53;95199.72;4805837;29;20030;-87
2021/05/18 13:14:59;;;;;;;2.35;0.80;;;;;;;-145.61;100.00;68426.72;4820184;29;20092;-87
2021/05/18 13:17:26;;;;;;;1.50;0.70;;;;;;;-145.61;100.00;68426.72;4809773;29;20030;-87
2021/05/18 13:20:03;;;;;;;1.45;1.05;;;;;;;-145.61;100.00;68426.72;4813936;29;20083;-87
2021/05/18 13:22:31;;;;;;;1.35;1.00;;;;;;;-145.61;100.00;68426.72;4816854;29;20169;-87
2021/05/18 13:27:55;;;;;;;1.30;1.20;;;;;;;-145.61;100.00;68426.72;4818394;29;20121;-87
2021/05/18 13:30:23;;;;;;;2.67;1.38;;;;;;;-145.61;100.00;68426.72;4817191;29;20042;-88
2021/05/18 13:32:49;;;;;;;1.67;1.10;;;;;;;-145.61;100.00;68426.72;4802767;29;20034;-88
2021/05/18 13:35:17;;;;;;;1.52;1.10;;;;;;;-145.61;100.00;68426.72;4794581;29;20027;-87
2021/05/18 13:37:43;;;;;;;1.73;0.70;;;;;;;-145.61;100.00;68426.72;4803353;29;20117;-88
2021/05/18 13:40:10;;;;;;;1.33;0.60;;;;;;;;;;4804584;29;20026;-88
2021/05/18 13:42:35;;;;;;;1.13;0.80;;;;;;;9.44;85.53;95199.72;4801792;29;20031;-87
2021/05/18 13:45:00;;;;;;;1.83;0.93;;;;;;;-145.61;100.00;68426.72;4799577;29;20037;-87
2021/05/18 13:47:26;;;;;;;1.20;0.90;;;;;;;9.44;85.53;95199.72;4795077;29;20031;-87
2021/05/18 13:49:51;;;;;;;1.30;0.90;;;;;;;-145.61;100.00;68426.72;4823397;29;20030;-88
2021/05/18 13:52:17;;;;;;;1.17;1.05;;;;;;;9.44;85.53;95199.72;4809071;29;20045;-87
2021/05/18 13:54:42;;;;;;;0.80;0.70;;;;;;;13.42;62.30;95436.63;4811076;29;20026;-87
2021/05/18 13:57:07;;;;;;;1.65;0.80;;;;;;;-145.61;100.00;68426.72;4800948;29;20775;-87
2021/05/18 13:59:33;;;;;;;1.15;0.80;;;;;;;-145.61;100.00;68426.72;4799022;29;20039;-87
2021/05/18 14:01:59;;;;;;;2.08;0.90;;;;;;;-145.61;100.00;68426.72;4798461;29;20042;-87
2021/05/18 14:04:25;;;;;;;0.95;0.77;;;;;;;-145.61;100.00;68426.72;4813001;29;20134;-88
2021/05/18 14:08:03;;;;;;;1.05;0.77;;;;;;;13.42;62.30;95436.63;4802444;29;20026;-87
2021/05/18 14:10:03;;;;;;;2.50;1.65;;;;;;;-145.61;100.00;68426.72;4797818;29;20402;-86
2021/05/18 14:12:28;;;;;;;1.95;1.60;;;;;;;-145.61;100.00;68426.72;4801201;29;20080;-88
2021/05/18 14:14:54;;;;;;;2.05;1.08;;;;;;;-145.61;100.00;68426.72;4803496;29;20027;-88
2021/05/18 14:17:19;;;;;;;1.10;0.75;;;;;;;13.32;60.72;95420.53;4811838;29;20332;-88
2021/05/18 14:19:45;;;;;;;0.95;0.80;;;;;;;13.38;59.65;95411.63;4801369;29;20027;-88
2021/05/18 14:22:10;;;;;;;1.55;1.10;;;;;;;13.52;58.85;95400.41;4818910;29;20044;-89
2021/05/18 14:24:54;;;;;;;1.77;1.10;;;;;;;13.52;58.85;95400.41;4809185;29;20027;-88
2021/05/18 14:27:19;;;;;;;0.95;0.50;;;;;;;13.54;56.44;95425.22;4809579;29;20035;-89
2021/05/18 14:29:46;;;;;;;1.63;0.60;;;;;;;13.97;57.20;95482.16;4794759;29;20035;-88
2021/05/18 14:32:12;;;;;;;2.08;1.00;;;;;;;14.12;57.01;95482.63;4817263;29;20041;-88
2021/05/18 14:34:38;;;;;;;1.35;1.00;;;;;;;13.84;58.06;95430.81;4800696;29;20026;-88
2021/05/18 14:37:03;;;;;;;1.75;0.80;;;;;;;13.96;59.74;95428.09;4794702;29;20027;-88
2021/05/18 14:44:57;;;;;;;1.70;0.90;;;;;;;15.70;54.33;95408.50;4817747;29;20084;-89
2021/05/18 14:47:25;;;;;;;3.05;1.17;;;;;;;16.35;49.36;95440.38;4799865;29;20042;-89
2021/05/18 14:55:20;;;;;;;3.15;1.20;;;;;;;17.45;50.21;95444.00;4828921;29;20037;-88
2021/05/18 14:57:46;;;;;;;1.25;0.90;;;;;;;17.78;47.56;95420.00;4797488;29;20088;-88
2021/05/18 15:00:12;;;;;;;1.38;0.70;;;;;;;18.53;47.03;95451.72;4799636;29;20331;-90
2021/05/18 15:02:37;;;;;;;1.05;0.85;;;;;;;18.32;44.58;95432.44;4806739;29;20035;-89
2021/05/18 15:05:04;;;;;;;0.93;0.60;;;;;;;18.25;43.42;95430.31;4808832;29;20063;-88
2021/05/18 15:07:30;;;;;;;0.70;0.50;;;;;;;17.68;42.61;95422.38;4793887;29;20072;-88
2021/05/18 15:09:55;;;;;;;1.48;0.70;;;;;;;18.35;43.38;95414.16;4801285;29;20058;-89
2021/05/18 15:12:21;;;;;;;1.90;0.73;;;;;;;18.91;46.17;95421.94;4810339;29;20343;-90
2021/05/18 15:14:47;;;;;;;1.40;0.63;;;;;;;18.38;44.34;95484.56;4811740;29;20026;-89
2021/05/18 15:17:12;;;;;;;0.73;0.60;;;;;;;17.90;48.15;95437.03;4818314;29;20038;-88
2021/05/18 15:19:38;;;;;;;2.45;0.60;;;;;;;17.48;47.72;95455.94;4830237;29;20388;-88
2021/05/18 15:22:04;;;;;;;2.05;0.50;;;;;;;16.67;48.31;95432.22;4816132;29;20327;-88
2021/05/18 15:24:30;;;;;;;1.23;0.60;;;;;;;16.61;49.04;95437.03;4811901;29;20415;-87
2021/05/18 15:26:56;;;;;;;2.13;0.60;;;;;;;16.79;47.77;95410.91;4828017;29;20041;-88
2021/05/18 15:29:22;;;;;;;0.88;0.70;;;;;;;17.15;49.32;95457.97;4801239;29;20034;-88
2021/05/18 15:31:48;;;;;;;4.50;0.82;;;;;;;17.26;48.61;95487.97;4817305;29;20033;-88
2021/05/18 15:34:14;;;;;;;1.85;0.88;;;;;;;17.37;48.71;95448.66;4811848;29;20146;-86
2021/05/18 15:36:39;;;;;;;0.85;0.65;;;;;;;16.99;48.47;95434.25;4796906;29;20071;-87
2021/05/18 15:39:06;;;;;;;2.55;1.00;;;;;;;17.60;49.47;95494.94;4793851;29;20403;-89
2021/05/18 15:44:54;;;;;;;4.05;1.00;;;;;;;17.16;52.19;95466.94;4828600;29;20045;-92
2021/05/18 15:47:19;;;;;;;0.80;0.70;;;;;;;17.55;51.11;95482.78;4812084;29;20038;-90
2021/05/18 15:49:45;;;;;;;0.93;0.80;;;;;;;17.40;50.91;95450.31;4812059;29;20431;-92
2021/05/18 15:52:10;;;;;;;4.00;0.80;;;;;;;17.01;49.60;95453.69;4794904;29;20027;-92
2021/05/18 15:54:36;;;;;;;0.75;0.65;;;;;;;16.26;50.66;95423.56;4793579;29;20110;-91
2021/05/18 15:57:03;;;;;;;1.67;1.20;;;;;;;16.48;51.60;95461.63;4795136;29;20497;-93
2021/05/18 15:59:29;;;;;;;1.60;0.95;;;;;;;16.60;51.02;95416.38;4799181;29;20436;-91
2021/05/18 16:01:55;;;;;;;2.45;0.95;;;;;;;16.67;52.02;95431.47;4815305;29;20027;-89
2021/05/18 16:04:22;;;;;;;2.35;1.20;;;;;;;15.96;51.18;95454.53;4810384;29;20026;-90
2021/05/18 16:06:48;;;;;;;2.05;0.90;;;;;;;15.64;52.71;95416.03;4811403;29;20099;-90
2021/05/18 16:09:14;;;;;;;2.00;1.27;;;;;;;15.76;53.50;95457.72;4804317;29;20074;-91
2021/05/18 16:11:50;;;;;;;1.20;1.10;;;;;;;15.83;52.81;95459.91;4797742;29;20117;-91
2021/05/18 16:14:16;;;;;;;2.42;1.30;;;;;;;15.83;53.43;95468.84;4798791;29;20053;-90
2021/05/18 16:16:42;;;;;;;2.10;1.50;;;;;;;15.99;51.78;95458.97;4809552;29;21057;-88
2021/05/18 16:19:07;;;;;;;1.77;1.30;;;;;;;16.04;51.23;95466.38;4803351;29;20027;-88
2021/05/18 16:21:33;;;;;;;3.22;1.00;;;;;;;16.10;54.25;95464.31;4814458;29;20026;-88
2021/05/18 16:24:00;;;;;;;3.40;1.50;;;;;;;16.03;52.60;95475.84;4801680;29;20485;-91
2021/05/18 16:26:32;;;;;;;3.63;1.30;;;;;;;16.16;53.13;95508.09;4814954;29;20040;-90
2021/05/18 16:28:59;;;;;;;2.63;1.30;;;;;;;15.55;55.35;95436.22;4803482;29;20031;-91
2021/05/18 16:31:25;;;;;;;2.92;0.80;;;;;;;15.64;52.96;95504.34;4821933;29;21235;-90
2021/05/18 16:33:54;;;;;;;3.17;1.08;;;;;;;15.17;54.66;95455.22;4804604;29;20034;-89
2021/05/18 16:36:20;;;;;;;2.40;1.00;;;;;;;14.88;53.91;95478.56;4796493;29;20038;-90
2021/05/18 16:38:46;;;;;;;1.77;1.20;;;;;;;14.62;57.30;95445.41;4810397;29;20034;-90
2021/05/18 16:41:12;;;;;;;1.77;1.50;;;;;;;14.54;55.95;95453.41;4814341;29;20061;-91
2021/05/18 16:43:38;;;;;;;2.28;1.20;;;;;;;14.36;58.72;95423.94;4799890;29;20091;-90
2021/05/18 16:46:04;;;;;;;2.83;1.15;;;;;;;14.26;56.41;95461.69;4796282;29;20115;-89
2021/05/18 16:48:31;;;;;;;5.65;1.35;;;;;;;14.06;58.46;95435.50;4802829;29;20121;-90
2021/05/18 16:51:00;;;;;;;1.30;0.93;;;;;;;14.67;56.79;95519.16;4796333;29;20039;-89
2021/05/18 16:53:27;;;;;;;1.48;0.90;;;;;;;14.51;58.60;95519.97;4800700;29;20026;-89
2021/05/18 16:55:53;;;;;;;2.60;1.00;;;;;;;14.51;57.90;95528.19;4799638;29;20173;-88
2021/05/18 16:58:19;;;;;;;3.70;0.80;;;;;;;14.32;55.98;95527.22;4804973;29;20034;-89
2021/05/18 17:00:46;;;;;;;1.98;1.00;;;;;;;13.96;58.39;95480.69;4806068;29;20038;-89
2021/05/18 17:03:12;;;;;;;3.50;0.85;;;;;;;14.09;58.26;95516.38;4797298;29;20050;-88
2021/05/18 17:05:38;;;;;;;1.58;1.00;;;;;;;13.80;58.10;95478.75;4796322;29;20027;-89
2021/05/18 17:08:04;;;;;;;1.65;1.00;;;;;;;13.88;57.69;95476.97;4795247;29;20031;-88